createdAt,value
2019-02-04T00:00:37.345Z,2.60
2019-02-04T00:01:37.405Z,2.20
2019-02-04T00:02:37.343Z,2.50
2019-02-04T00:03:37.319Z,2.30
2019-02-04T00:04:37.301Z,2.20
2019-02-04T00:05:37.300Z,2.10
2019-02-04T00:06:37.316Z,2.40
2019-02-04T00:07:37.278Z,2.30
2019-02-04T00:08:37.260Z,2.00
2019-02-04T00:09:37.252Z,2.30
2019-02-04T00:10:37.258Z,2.40
2019-02-04T00:11:37.256Z,2.20
2019-02-04T00:12:37.230Z,2.60
2019-02-04T00:13:37.213Z,1.90
2019-02-04T00:14:37.189Z,2.20
2019-02-04T00:15:37.179Z,2.70
2019-02-04T00:16:40.743Z,2.20
2019-02-04T00:17:37.222Z,1.90
2019-02-04T00:18:37.200Z,2.30
2019-02-04T00:19:37.290Z,2.10
2019-02-04T00:20:37.161Z,2.70
2019-02-04T00:21:37.219Z,2.00
2019-02-04T00:22:37.137Z,2.00
2019-02-04T00:23:37.125Z,2.60
2019-02-04T00:24:37.143Z,2.50
2019-02-04T00:25:37.135Z,2.10
2019-02-04T00:26:37.179Z,2.00
2019-02-04T00:27:37.058Z,2.30
2019-02-04T00:28:37.043Z,2.20
2019-02-04T00:29:37.041Z,2.50
2019-02-04T00:30:37.018Z,2.30
2019-02-04T00:31:37.054Z,2.50
2019-02-04T00:32:37.008Z,2.50
2019-02-04T00:33:36.987Z,2.20
2019-02-04T00:34:36.984Z,2.50
2019-02-04T00:35:36.981Z,2.50
2019-02-04T00:36:37.256Z,2.40
2019-02-04T00:37:36.956Z,2.60
2019-02-04T00:38:36.945Z,2.60
2019-02-04T00:39:36.925Z,2.50
2019-02-04T00:40:36.914Z,2.70
2019-02-04T00:41:36.940Z,2.30
2019-02-04T00:42:36.908Z,2.40
2019-02-04T00:43:37.140Z,2.00
2019-02-04T00:44:36.887Z,2.50
2019-02-04T00:45:36.896Z,2.50
2019-02-04T00:46:36.897Z,2.40
2019-02-04T00:47:36.859Z,2.50
2019-02-04T00:48:36.931Z,2.50
2019-02-04T00:49:36.825Z,2.20
2019-02-04T00:50:36.811Z,2.50
2019-02-04T00:51:36.804Z,2.60
2019-02-04T00:52:36.879Z,2.40
2019-02-04T00:53:36.783Z,2.70
2019-02-04T00:54:36.761Z,2.60
2019-02-04T00:55:36.750Z,2.60
2019-02-04T00:56:36.740Z,2.30
2019-02-04T00:57:36.770Z,2.30
2019-02-04T00:58:36.723Z,2.70
2019-02-04T00:59:36.721Z,2.40
2019-02-04T01:00:36.692Z,2.70
2019-02-04T01:01:36.683Z,2.80
2019-02-04T01:02:36.681Z,2.70
2019-02-04T01:03:36.660Z,2.70
2019-02-04T01:04:36.656Z,2.60
2019-02-04T01:05:36.661Z,2.60
2019-02-04T01:06:36.627Z,2.50
2019-02-04T01:07:36.624Z,2.60
2019-02-04T01:08:36.631Z,2.80
2019-02-04T01:09:36.601Z,2.40
2019-02-04T01:10:36.610Z,2.30
2019-02-04T01:11:36.571Z,2.40
2019-02-04T01:12:36.609Z,2.30
2019-02-04T01:13:36.552Z,2.30
2019-02-04T01:14:36.540Z,2.10
2019-02-04T01:15:36.532Z,2.50
2019-02-04T01:16:36.512Z,2.40
2019-02-04T01:17:36.601Z,2.60
2019-02-04T01:18:36.537Z,2.10
2019-02-04T01:19:36.533Z,2.40
2019-02-04T01:20:36.492Z,2.40
2019-02-04T01:21:36.513Z,2.30
2019-02-04T01:22:36.544Z,2.40
2019-02-04T01:23:36.495Z,2.60
2019-02-04T01:24:36.472Z,2.40
2019-02-04T01:25:36.477Z,2.00
2019-02-04T01:26:36.438Z,2.30
2019-02-04T01:27:36.454Z,2.20
2019-02-04T01:28:36.409Z,2.30
2019-02-04T01:29:36.376Z,1.80
2019-02-04T01:30:36.373Z,2.70
2019-02-04T01:31:36.365Z,2.20
2019-02-04T01:32:36.378Z,2.40
2019-02-04T01:33:36.351Z,2.40
2019-02-04T01:34:36.329Z,2.10
2019-02-04T01:35:36.317Z,1.90
2019-02-04T01:36:36.355Z,2.10
2019-02-04T01:37:36.325Z,2.50
2019-02-04T01:38:36.286Z,2.00
2019-02-04T01:39:36.270Z,2.30
2019-02-04T01:40:36.251Z,2.70
2019-02-04T01:41:36.244Z,2.10
2019-02-04T01:42:36.304Z,2.10
2019-02-04T01:43:36.230Z,1.90
2019-02-04T01:44:36.219Z,2.00
2019-02-04T01:45:36.226Z,2.10
2019-02-04T01:46:36.186Z,2.50
2019-02-04T01:47:36.224Z,2.40
2019-02-04T01:48:36.176Z,2.40
2019-02-04T01:49:36.167Z,2.40
2019-02-04T01:50:36.156Z,2.50
2019-02-04T01:51:36.139Z,2.40
2019-02-04T01:52:36.161Z,2.30
2019-02-04T01:53:36.126Z,2.30
2019-02-04T01:54:36.107Z,2.50
2019-02-04T01:55:36.129Z,2.50
2019-02-04T01:56:36.166Z,2.40
2019-02-04T01:57:36.121Z,2.60
2019-02-04T01:58:36.146Z,2.50
2019-02-04T01:59:36.052Z,2.20
2019-02-04T02:00:36.045Z,2.40
2019-02-04T02:01:36.043Z,2.10
2019-02-04T02:02:36.047Z,2.10
2019-02-04T02:03:36.009Z,2.10
2019-02-04T02:04:35.994Z,2.10
2019-02-04T02:05:35.985Z,2.20
2019-02-04T02:06:35.978Z,2.80
2019-02-04T02:07:36.004Z,2.20
2019-02-04T02:08:35.989Z,2.10
2019-02-04T02:09:35.944Z,2.00
2019-02-04T02:10:35.940Z,2.00
2019-02-04T02:11:35.938Z,2.40
2019-02-04T02:12:35.941Z,2.20
2019-02-04T02:13:35.921Z,2.30
2019-02-04T02:14:35.901Z,2.40
2019-02-04T02:15:35.883Z,2.50
2019-02-04T02:16:35.872Z,2.30
2019-02-04T02:17:35.935Z,2.70
2019-02-04T02:18:35.865Z,1.90
2019-02-04T02:19:35.862Z,2.20
2019-02-04T02:20:35.863Z,2.50
2019-02-04T02:21:35.864Z,2.50
2019-02-04T02:22:36.005Z,2.30
2019-02-04T02:23:35.824Z,2.20
2019-02-04T02:24:35.813Z,2.00
2019-02-04T02:25:35.839Z,1.70
2019-02-04T02:26:35.817Z,1.90
2019-02-04T02:27:35.817Z,2.00
2019-02-04T02:28:35.746Z,1.80
2019-02-04T02:29:35.725Z,2.50
2019-02-04T02:30:35.731Z,1.80
2019-02-04T02:31:35.707Z,2.30
2019-02-04T02:32:35.738Z,2.20
2019-02-04T02:33:35.693Z,1.80
2019-02-04T02:34:35.670Z,2.10
2019-02-04T02:35:35.689Z,1.90
2019-02-04T02:36:35.664Z,2.10
2019-02-04T02:37:35.723Z,2.40
2019-02-04T02:38:35.660Z,2.60
2019-02-04T02:39:35.639Z,2.70
2019-02-04T02:40:35.606Z,2.80
2019-02-04T02:41:35.606Z,2.70
2019-02-04T02:42:35.575Z,2.20
2019-02-04T02:43:35.603Z,2.40
2019-02-04T02:44:35.566Z,2.30
2019-02-04T02:45:35.559Z,1.90
2019-02-04T02:46:35.543Z,2.50
2019-02-04T02:47:38.351Z,1.80
2019-02-04T02:48:35.549Z,2.20
2019-02-04T02:49:35.512Z,2.20
2019-02-04T02:50:35.494Z,2.50
2019-02-04T02:51:35.483Z,2.70
2019-02-04T02:52:35.476Z,2.40
2019-02-04T02:53:35.513Z,2.20
2019-02-04T02:54:35.456Z,2.70
2019-02-04T02:55:35.448Z,2.60
2019-02-04T02:56:35.469Z,2.80
2019-02-04T02:57:35.438Z,2.40
2019-02-04T02:58:35.443Z,2.50
2019-02-04T02:59:35.394Z,2.00
2019-02-04T03:00:35.389Z,2.10
2019-02-04T03:01:35.376Z,2.40
2019-02-04T03:02:35.359Z,2.00
2019-02-04T03:03:35.396Z,2.20
2019-02-04T03:04:35.374Z,2.50
2019-02-04T03:05:35.339Z,2.30
2019-02-04T03:06:35.318Z,2.40
2019-02-04T03:07:35.311Z,2.90
2019-02-04T03:08:35.351Z,2.90
2019-02-04T03:09:35.296Z,2.30
2019-02-04T03:10:35.270Z,2.50
2019-02-04T03:11:35.272Z,2.70
2019-02-04T03:12:35.254Z,2.50
2019-02-04T03:13:35.276Z,1.90
2019-02-04T03:14:35.234Z,2.10
2019-02-04T03:15:35.271Z,2.50
2019-02-04T03:16:35.220Z,2.00
2019-02-04T03:17:35.261Z,2.20
2019-02-04T03:18:35.297Z,2.10
2019-02-04T03:19:35.281Z,2.50
2019-02-04T03:20:35.191Z,2.20
2019-02-04T03:21:35.190Z,2.10
2019-02-04T03:22:35.184Z,2.60
2019-02-04T03:23:35.257Z,2.00
2019-02-04T03:24:35.156Z,1.80
2019-02-04T03:25:35.148Z,1.80
2019-02-04T03:26:35.170Z,2.20
2019-02-04T03:27:35.137Z,1.50
2019-02-04T03:28:35.116Z,2.00
2019-02-04T03:29:35.117Z,1.70
2019-02-04T03:30:35.112Z,1.90
2019-02-04T03:31:35.075Z,1.80
2019-02-04T03:32:35.049Z,1.90
2019-02-04T03:33:35.067Z,1.90
2019-02-04T03:34:35.017Z,1.90
2019-02-04T03:35:35.009Z,2.20
2019-02-04T03:36:35.006Z,2.50
2019-02-04T03:37:34.995Z,1.50
2019-02-04T03:38:35.002Z,1.60
2019-02-04T03:39:34.969Z,2.00
2019-02-04T03:40:34.942Z,2.30
2019-02-04T03:41:34.945Z,1.70
2019-02-04T03:42:35.218Z,2.40
2019-02-04T03:43:34.958Z,2.10
2019-02-04T03:44:34.914Z,1.80
2019-02-04T03:45:34.894Z,1.80
2019-02-04T03:46:34.890Z,1.90
2019-02-04T03:47:34.880Z,2.00
2019-02-04T03:48:34.876Z,1.90
2019-02-04T03:49:34.859Z,2.10
2019-02-04T03:50:34.840Z,2.10
2019-02-04T03:51:34.838Z,2.20
2019-02-04T03:52:34.824Z,2.50
2019-02-04T03:53:34.805Z,2.50
2019-02-04T03:54:34.835Z,2.80
2019-02-04T03:55:34.794Z,1.90
2019-02-04T03:56:34.781Z,2.50
2019-02-04T03:57:34.764Z,2.20
2019-02-04T03:58:34.748Z,2.50
2019-02-04T03:59:34.781Z,2.40
2019-02-04T04:00:34.758Z,1.80
2019-02-04T04:01:34.768Z,2.30
2019-02-04T04:02:34.725Z,2.20
2019-02-04T04:03:34.695Z,2.20
2019-02-04T04:04:34.783Z,2.40
2019-02-04T04:05:34.691Z,2.60
2019-02-04T04:06:34.680Z,2.30
2019-02-04T04:07:34.651Z,2.10
2019-02-04T04:08:34.650Z,2.20
2019-02-04T04:09:34.733Z,2.40
2019-02-04T04:10:34.623Z,2.30
2019-02-04T04:11:34.614Z,2.40
2019-02-04T04:12:34.626Z,2.30
2019-02-04T04:13:34.597Z,2.60
2019-02-04T04:14:34.606Z,2.80
2019-02-04T04:15:34.575Z,2.90
2019-02-04T04:16:34.557Z,2.50
2019-02-04T04:17:34.578Z,1.90
2019-02-04T04:18:34.587Z,2.20
2019-02-04T04:19:34.720Z,2.60
2019-02-04T04:20:34.551Z,1.90
2019-02-04T04:21:34.531Z,2.60
2019-02-04T04:22:34.542Z,3.00
2019-02-04T04:23:34.513Z,2.30
2019-02-04T04:24:34.576Z,2.20
2019-02-04T04:25:34.500Z,2.50
2019-02-04T04:26:34.493Z,2.50
2019-02-04T04:27:34.437Z,2.50
2019-02-04T04:28:34.425Z,3.20
2019-02-04T04:29:34.471Z,3.00
2019-02-04T04:30:34.418Z,2.30
2019-02-04T04:31:34.402Z,2.60
2019-02-04T04:32:34.455Z,2.40
2019-02-04T04:33:34.370Z,2.70
2019-02-04T04:34:34.403Z,2.60
2019-02-04T04:35:34.363Z,2.40
2019-02-04T04:36:34.361Z,2.70
2019-02-04T04:37:34.329Z,2.80
2019-02-04T04:38:34.335Z,2.70
2019-02-04T04:39:34.337Z,2.80
2019-02-04T04:40:34.300Z,3.10
2019-02-04T04:41:34.425Z,2.90
2019-02-04T04:42:34.302Z,2.70
2019-02-04T04:43:34.270Z,2.20
2019-02-04T04:44:34.295Z,2.30
2019-02-04T04:45:34.248Z,3.00
2019-02-04T04:46:34.232Z,2.90
2019-02-04T04:47:34.240Z,3.00
2019-02-04T04:48:34.327Z,2.80
2019-02-04T04:49:34.226Z,2.50
2019-02-04T04:50:34.197Z,2.40
2019-02-04T04:51:34.192Z,2.80
2019-02-04T04:52:34.172Z,3.10
2019-02-04T04:53:34.172Z,2.50
2019-02-04T04:54:34.212Z,3.10
2019-02-04T04:55:34.144Z,3.00
2019-02-04T04:56:34.270Z,2.50
2019-02-04T04:57:34.121Z,2.70
2019-02-04T04:58:34.144Z,2.90
2019-02-04T04:59:34.145Z,3.70
2019-02-04T05:00:34.163Z,2.40
2019-02-04T05:01:34.097Z,2.80
2019-02-04T05:02:34.078Z,2.70
2019-02-04T05:03:34.094Z,2.90
2019-02-04T05:04:34.075Z,2.20
2019-02-04T05:05:34.041Z,2.90
2019-02-04T05:06:34.013Z,3.20
2019-02-04T05:07:34.061Z,2.50
2019-02-04T05:08:33.997Z,2.60
2019-02-04T05:09:34.025Z,3.10
2019-02-04T05:10:34.008Z,2.70
2019-02-04T05:11:33.981Z,2.60
2019-02-04T05:12:33.942Z,2.80
2019-02-04T05:13:33.941Z,3.30
2019-02-04T05:14:33.939Z,2.80
2019-02-04T05:15:33.975Z,1.90
2019-02-04T05:16:33.956Z,2.80
2019-02-04T05:17:33.946Z,2.40
2019-02-04T05:18:38.306Z,2.60
2019-02-04T05:19:33.923Z,2.40
2019-02-04T05:20:33.896Z,2.80
2019-02-04T05:21:33.897Z,2.50
2019-02-04T05:22:33.869Z,2.40
2019-02-04T05:23:33.864Z,2.80
2019-02-04T05:24:33.856Z,2.70
2019-02-04T05:25:33.852Z,2.10
2019-02-04T05:26:33.828Z,2.00
2019-02-04T05:27:33.782Z,2.20
2019-02-04T05:28:33.775Z,2.40
2019-02-04T05:29:33.767Z,2.30
2019-02-04T05:30:33.794Z,2.40
2019-02-04T05:31:33.736Z,1.80
2019-02-04T05:32:33.745Z,1.80
2019-02-04T05:33:33.806Z,1.80
2019-02-04T05:34:33.704Z,1.90
2019-02-04T05:35:33.730Z,2.30
2019-02-04T05:36:33.757Z,2.60
2019-02-04T05:37:33.676Z,2.10
2019-02-04T05:38:33.692Z,2.10
2019-02-04T05:39:33.658Z,2.10
2019-02-04T05:40:33.677Z,2.80
2019-02-04T05:41:33.683Z,2.50
2019-02-04T05:42:34.662Z,2.00
2019-02-04T05:43:33.652Z,1.70
2019-02-04T05:44:33.644Z,1.90
2019-02-04T05:45:33.625Z,1.80
2019-02-04T05:46:33.573Z,2.30
2019-02-04T05:47:33.624Z,2.10
2019-02-04T05:48:33.563Z,2.20
2019-02-04T05:49:33.560Z,1.90
2019-02-04T05:50:33.568Z,2.10
2019-02-04T05:51:33.596Z,2.40
2019-02-04T05:52:33.519Z,1.90
2019-02-04T05:53:33.514Z,1.80
2019-02-04T05:54:33.493Z,1.80
2019-02-04T05:55:33.519Z,1.60
2019-02-04T05:56:33.571Z,2.10
2019-02-04T05:57:33.465Z,2.30
2019-02-04T05:58:33.445Z,2.00
2019-02-04T05:59:33.437Z,1.80
2019-02-04T06:00:33.466Z,1.60
2019-02-04T06:01:33.555Z,2.00
2019-02-04T06:02:33.401Z,2.00
2019-02-04T06:03:33.392Z,1.70
2019-02-04T06:04:33.420Z,1.80
2019-02-04T06:05:33.397Z,2.30
2019-02-04T06:06:33.380Z,1.50
2019-02-04T06:07:33.372Z,2.60
2019-02-04T06:08:33.345Z,1.80
2019-02-04T06:09:33.347Z,1.60
2019-02-04T06:10:33.343Z,2.30
2019-02-04T06:11:33.313Z,2.40
2019-02-04T06:12:35.065Z,1.80
2019-02-04T06:13:33.294Z,1.70
2019-02-04T06:14:33.396Z,1.80
2019-02-04T06:15:33.283Z,2.10
2019-02-04T06:16:33.309Z,2.10
2019-02-04T06:17:33.300Z,2.70
2019-02-04T06:18:33.264Z,1.80
2019-02-04T06:19:33.254Z,2.70
2019-02-04T06:20:33.296Z,2.40
2019-02-04T06:21:33.238Z,2.90
2019-02-04T06:22:33.247Z,3.20
2019-02-04T06:23:33.223Z,3.10
2019-02-04T06:24:33.244Z,2.50
2019-02-04T06:25:33.256Z,2.40
2019-02-04T06:26:33.173Z,2.90
2019-02-04T06:27:33.147Z,2.60
2019-02-04T06:28:33.120Z,2.30
2019-02-04T06:29:33.117Z,2.30
2019-02-04T06:30:33.129Z,3.00
2019-02-04T06:31:33.097Z,2.90
2019-02-04T06:32:34.641Z,3.20
2019-02-04T06:33:33.085Z,3.10
2019-02-04T06:34:33.078Z,3.20
2019-02-04T06:35:33.065Z,2.30
2019-02-04T06:36:33.049Z,3.10
2019-02-04T06:37:33.030Z,2.90
2019-02-04T06:38:33.039Z,2.50
2019-02-04T06:39:33.083Z,2.40
2019-02-04T06:40:32.993Z,2.90
2019-02-04T06:41:33.013Z,3.10
2019-02-04T06:42:32.985Z,2.90
2019-02-04T06:43:32.956Z,4.30
2019-02-04T06:44:32.969Z,3.80
2019-02-04T06:45:32.952Z,3.20
2019-02-04T06:46:32.941Z,3.50
2019-02-04T06:47:32.924Z,2.40
2019-02-04T06:48:32.899Z,2.50
2019-02-04T06:49:32.897Z,3.80
2019-02-04T06:50:32.894Z,3.60
2019-02-04T06:51:32.886Z,3.10
2019-02-04T06:52:32.854Z,3.50
2019-02-04T06:53:32.872Z,3.10
2019-02-04T06:54:32.841Z,3.70
2019-02-04T06:55:32.828Z,3.50
2019-02-04T06:56:35.846Z,3.30
2019-02-04T06:57:32.809Z,4.00
2019-02-04T06:58:32.797Z,3.60
2019-02-04T06:59:32.787Z,3.70
2019-02-04T07:00:32.782Z,3.90
2019-02-04T07:01:32.792Z,3.70
2019-02-04T07:02:32.987Z,4.10
2019-02-04T07:03:32.782Z,3.70
2019-02-04T07:04:32.731Z,3.30
2019-02-04T07:05:43.129Z,3.90
2019-02-04T07:06:32.736Z,3.80
2019-02-04T07:07:32.701Z,3.90
2019-02-04T07:08:32.689Z,3.90
2019-02-04T07:09:32.745Z,4.40
2019-02-04T07:10:32.857Z,3.10
2019-02-04T07:11:32.846Z,4.10
2019-02-04T07:12:32.654Z,4.00
2019-02-04T07:13:32.630Z,4.60
2019-02-04T07:14:32.634Z,4.40
2019-02-04T07:15:32.628Z,4.70
2019-02-04T07:16:33.964Z,5.40
2019-02-04T07:17:32.619Z,5.00
2019-02-04T07:18:32.619Z,5.70
2019-02-04T07:19:32.680Z,5.70
2019-02-04T07:20:32.606Z,5.80
2019-02-04T07:21:32.627Z,5.80
2019-02-04T07:22:32.580Z,5.90
2019-02-04T07:23:32.699Z,6.00
2019-02-04T07:24:42.369Z,6.00
2019-02-04T07:25:32.667Z,5.80
2019-02-04T07:26:32.633Z,6.10
2019-02-04T07:27:32.515Z,5.80
2019-02-04T07:28:32.468Z,6.20
2019-02-04T07:29:32.479Z,5.70
2019-02-04T07:30:32.448Z,6.20
2019-02-04T07:31:32.470Z,5.70
2019-02-04T07:32:32.548Z,6.30
2019-02-04T07:33:32.476Z,6.30
2019-02-04T07:34:32.418Z,5.80
2019-02-04T07:35:32.412Z,6.10
2019-02-04T07:36:32.473Z,5.60
2019-02-04T07:37:32.393Z,5.90
2019-02-04T07:38:33.585Z,6.10
2019-02-04T07:39:32.357Z,6.00
2019-02-04T07:40:32.343Z,5.90
2019-02-04T07:41:32.365Z,6.10
2019-02-04T07:42:32.346Z,6.00
2019-02-04T07:43:32.326Z,6.10
2019-02-04T07:44:32.303Z,5.80
2019-02-04T07:45:32.277Z,6.10
2019-02-04T07:46:32.317Z,5.80
2019-02-04T07:47:32.314Z,6.00
2019-02-04T07:48:32.309Z,7.30
2019-02-04T07:49:35.165Z,7.90
2019-02-04T07:50:32.237Z,8.10
2019-02-04T07:51:32.276Z,8.20
2019-02-04T07:52:32.396Z,8.00
2019-02-04T07:53:32.342Z,6.80
2019-02-04T07:54:32.215Z,7.00
2019-02-04T07:55:32.201Z,6.10
2019-02-04T07:56:32.318Z,5.90
2019-02-04T07:57:32.202Z,4.50
2019-02-04T07:58:32.200Z,5.30
2019-02-04T07:59:32.172Z,5.10
2019-02-04T08:00:32.142Z,5.20
2019-02-04T08:01:38.985Z,4.00
2019-02-04T08:02:32.328Z,3.50
2019-02-04T08:03:32.315Z,4.10
2019-02-04T08:04:32.391Z,4.70
2019-02-04T08:05:32.259Z,3.90
2019-02-04T08:06:32.310Z,3.40
2019-02-04T08:07:32.081Z,4.10
2019-02-04T08:08:32.103Z,3.60
2019-02-04T08:09:32.089Z,4.30
2019-02-04T08:10:32.080Z,4.20
2019-02-04T08:11:32.116Z,3.20
2019-02-04T08:12:32.049Z,4.10
2019-02-04T08:13:31.989Z,3.60
2019-02-04T08:14:31.995Z,4.30
2019-02-04T08:15:31.994Z,4.60
2019-02-04T08:16:32.019Z,4.20
2019-02-04T08:17:32.078Z,4.60
2019-02-04T08:18:31.994Z,4.60
2019-02-04T08:19:32.099Z,4.30
2019-02-04T08:20:31.958Z,4.00
2019-02-04T08:21:31.925Z,4.10
2019-02-04T08:22:32.012Z,4.00
2019-02-04T08:23:31.929Z,4.20
2019-02-04T08:24:31.914Z,4.10
2019-02-04T08:25:31.904Z,3.60
2019-02-04T08:26:31.884Z,2.80
2019-02-04T08:27:32.017Z,3.70
2019-02-04T08:28:31.828Z,3.50
2019-02-04T08:29:31.861Z,3.80
2019-02-04T08:30:31.849Z,4.50
2019-02-04T08:31:31.827Z,4.00
2019-02-04T08:32:31.856Z,4.00
2019-02-04T08:33:31.856Z,3.60
2019-02-04T08:34:31.830Z,4.20
2019-02-04T08:35:31.978Z,3.80
2019-02-04T08:36:43.057Z,4.10
2019-02-04T08:37:31.732Z,3.10
2019-02-04T08:38:31.760Z,3.10
2019-02-04T08:39:31.726Z,3.30
2019-02-04T08:40:31.695Z,3.70
2019-02-04T08:41:31.759Z,3.90
2019-02-04T08:42:31.718Z,3.50
2019-02-04T08:43:33.924Z,3.60
2019-02-04T08:44:31.649Z,4.20
2019-02-04T08:45:31.672Z,3.80
2019-02-04T08:46:31.647Z,4.00
2019-02-04T08:47:31.624Z,3.10
2019-02-04T08:48:31.600Z,3.20
2019-02-04T08:49:31.785Z,3.30
2019-02-04T08:50:31.602Z,3.40
2019-02-04T08:51:31.578Z,4.10
2019-02-04T08:52:31.565Z,3.60
2019-02-04T08:53:32.549Z,3.60
2019-02-04T08:54:31.572Z,3.20
2019-02-04T08:55:31.552Z,3.80
2019-02-04T08:56:31.707Z,3.50
2019-02-04T08:57:31.546Z,3.40
2019-02-04T08:58:31.512Z,3.80
2019-02-04T08:59:31.546Z,3.70
2019-02-04T09:00:31.478Z,3.60
2019-02-04T09:01:31.451Z,3.60
2019-02-04T09:02:31.463Z,2.90
2019-02-04T09:03:31.444Z,3.60
2019-02-04T09:04:31.455Z,3.20
2019-02-04T09:05:31.435Z,2.70
2019-02-04T09:06:31.408Z,3.30
2019-02-04T09:07:31.523Z,3.00
2019-02-04T09:08:32.099Z,2.90
2019-02-04T09:09:31.485Z,2.90
2019-02-04T09:10:31.369Z,3.00
2019-02-04T09:11:31.445Z,2.70
2019-02-04T09:12:31.351Z,3.20
2019-02-04T09:13:31.324Z,3.10
2019-02-04T09:14:31.528Z,3.20
2019-02-04T09:15:31.314Z,3.10
2019-02-04T09:16:31.340Z,2.90
2019-02-04T09:17:31.375Z,2.90
2019-02-04T09:18:31.333Z,2.90
2019-02-04T09:19:31.350Z,2.80
2019-02-04T09:20:31.357Z,3.10
2019-02-04T09:21:31.294Z,3.60
2019-02-04T09:22:31.278Z,4.90
2019-02-04T09:23:31.286Z,4.40
2019-02-04T09:24:31.367Z,4.20
2019-02-04T09:25:31.257Z,5.10
2019-02-04T09:26:31.310Z,5.10
2019-02-04T09:27:31.335Z,4.90
2019-02-04T09:28:31.206Z,4.40
2019-02-04T09:29:31.356Z,4.60
2019-02-04T09:30:31.200Z,4.30
2019-02-04T09:31:31.212Z,4.20
2019-02-04T09:32:31.172Z,3.90
2019-02-04T09:33:31.148Z,3.80
2019-02-04T09:34:31.196Z,3.70
2019-02-04T09:35:31.105Z,3.40
2019-02-04T09:36:31.105Z,3.20
2019-02-04T09:37:31.125Z,3.60
2019-02-04T09:38:31.066Z,3.80
2019-02-04T09:39:31.067Z,3.20
2019-02-04T09:40:31.104Z,3.10
2019-02-04T09:41:31.040Z,3.30
2019-02-04T09:42:31.026Z,3.40
2019-02-04T09:43:31.054Z,3.60
2019-02-04T09:44:31.393Z,3.20
2019-02-04T09:45:31.054Z,3.00
2019-02-04T09:46:31.105Z,3.20
2019-02-04T09:47:31.172Z,3.50
2019-02-04T09:48:31.141Z,3.10
2019-02-04T09:49:31.080Z,3.80
2019-02-04T09:50:32.542Z,3.30
2019-02-04T09:51:30.988Z,3.50
2019-02-04T09:52:30.961Z,3.20
2019-02-04T09:53:30.904Z,3.30
2019-02-04T09:54:30.998Z,3.10
2019-02-04T09:55:30.922Z,3.50
2019-02-04T09:56:30.864Z,3.20
2019-02-04T09:57:30.937Z,3.50
2019-02-04T09:58:31.310Z,3.40
2019-02-04T09:59:30.887Z,3.30
2019-02-04T10:00:30.944Z,3.20
2019-02-04T10:01:30.934Z,3.20
2019-02-04T10:02:30.899Z,3.60
2019-02-04T10:03:30.774Z,3.60
2019-02-04T10:04:30.893Z,3.40
2019-02-04T10:05:31.236Z,3.30
2019-02-04T10:06:30.792Z,3.40
2019-02-04T10:07:30.750Z,3.10
2019-02-04T10:08:30.752Z,4.00
2019-02-04T10:09:30.762Z,3.20
2019-02-04T10:10:30.766Z,3.30
2019-02-04T10:11:30.707Z,3.10
2019-02-04T10:12:30.682Z,3.00
2019-02-04T10:13:30.700Z,3.40
2019-02-04T10:14:30.660Z,3.90
2019-02-04T10:15:30.849Z,3.30
2019-02-04T10:16:30.670Z,3.60
2019-02-04T10:17:30.721Z,3.30
2019-02-04T10:18:30.684Z,2.80
2019-02-04T10:19:30.677Z,3.60
2019-02-04T10:20:33.973Z,3.60
2019-02-04T10:21:30.633Z,3.40
2019-02-04T10:22:30.667Z,3.30
2019-02-04T10:23:31.656Z,3.10
2019-02-04T10:24:30.619Z,3.50
2019-02-04T10:25:31.251Z,3.90
2019-02-04T10:26:30.638Z,3.90
2019-02-04T10:27:30.665Z,2.90
2019-02-04T10:28:30.659Z,3.00
2019-02-04T10:29:30.542Z,3.30
2019-02-04T10:30:30.618Z,3.60
2019-02-04T10:31:30.523Z,3.20
2019-02-04T10:32:30.472Z,3.20
2019-02-04T10:33:30.467Z,3.00
2019-02-04T10:34:30.476Z,2.90
2019-02-04T10:35:30.484Z,3.00
2019-02-04T10:36:30.444Z,2.90
2019-02-04T10:37:30.582Z,3.60
2019-02-04T10:38:30.493Z,3.50
2019-02-04T10:39:30.420Z,2.80
2019-02-04T10:40:30.421Z,2.30
2019-02-04T10:41:30.398Z,2.60
2019-02-04T10:42:30.385Z,2.40
2019-02-04T10:43:30.353Z,2.70
2019-02-04T10:44:30.352Z,2.70
2019-02-04T10:45:30.369Z,2.40
2019-02-04T10:46:30.614Z,2.50
2019-02-04T10:47:31.202Z,2.70
2019-02-04T10:48:30.302Z,2.50
2019-02-04T10:49:30.300Z,2.50
2019-02-04T10:50:30.312Z,2.30
2019-02-04T10:51:30.275Z,2.40
2019-02-04T10:52:30.326Z,2.60
2019-02-04T10:53:30.268Z,2.40
2019-02-04T10:54:30.258Z,2.40
2019-02-04T10:55:30.337Z,2.80
2019-02-04T10:56:30.292Z,2.50
2019-02-04T10:57:40.306Z,2.50
2019-02-04T10:58:30.292Z,2.30
2019-02-04T10:59:30.212Z,2.40
2019-02-04T11:00:30.217Z,2.40
2019-02-04T11:01:30.156Z,2.50
2019-02-04T11:02:30.191Z,2.40
2019-02-04T11:03:30.214Z,2.20
2019-02-04T11:04:30.136Z,2.40
2019-02-04T11:05:32.712Z,2.70
2019-02-04T11:06:30.115Z,2.30
2019-02-04T11:07:30.085Z,2.40
2019-02-04T11:08:32.758Z,2.40
2019-02-04T11:09:30.134Z,2.20
2019-02-04T11:10:30.077Z,2.50
2019-02-04T11:11:30.068Z,2.30
2019-02-04T11:12:30.068Z,2.50
2019-02-04T11:13:30.053Z,2.20
2019-02-04T11:14:30.042Z,2.40
2019-02-04T11:15:30.132Z,1.90
2019-02-04T11:16:29.992Z,2.50
2019-02-04T11:17:35.127Z,2.40
2019-02-04T11:18:30.141Z,2.60
2019-02-04T11:19:30.017Z,2.40
2019-02-04T11:20:30.002Z,2.60
2019-02-04T11:21:30.004Z,2.40
2019-02-04T11:22:30.004Z,2.50
2019-02-04T11:23:29.957Z,2.50
2019-02-04T11:24:33.166Z,2.40
2019-02-04T11:25:29.928Z,2.20
2019-02-04T11:26:30.033Z,2.80
2019-02-04T11:27:29.910Z,2.70
2019-02-04T11:28:29.924Z,2.70
2019-02-04T11:29:29.873Z,2.70
2019-02-04T11:30:30.018Z,2.60
2019-02-04T11:31:29.829Z,3.00
2019-02-04T11:32:29.843Z,3.30
2019-02-04T11:33:30.007Z,2.80
2019-02-04T11:34:29.866Z,2.60
2019-02-04T11:35:29.792Z,2.60
2019-02-04T11:36:30.095Z,2.60
2019-02-04T11:37:29.915Z,2.60
2019-02-04T11:38:29.815Z,2.80
2019-02-04T11:39:29.815Z,2.50
2019-02-04T11:40:29.731Z,3.20
2019-02-04T11:41:29.772Z,2.40
2019-02-04T11:42:29.803Z,2.60
2019-02-04T11:43:29.709Z,2.70
2019-02-04T11:44:29.720Z,2.80
2019-02-04T11:45:29.737Z,2.30
2019-02-04T11:46:29.681Z,2.50
2019-02-04T11:47:29.825Z,2.80
2019-02-04T11:48:29.664Z,2.50
2019-02-04T11:49:29.664Z,2.70
2019-02-04T11:50:29.626Z,2.30
2019-02-04T11:51:29.615Z,2.40
2019-02-04T11:52:29.627Z,2.90
2019-02-04T11:53:33.120Z,2.60
2019-02-04T11:54:30.592Z,2.70
2019-02-04T11:55:29.568Z,2.90
2019-02-04T11:56:29.551Z,2.70
2019-02-04T11:57:29.567Z,2.90
2019-02-04T11:58:29.536Z,3.00
2019-02-04T11:59:29.546Z,3.00
2019-02-04T12:00:29.550Z,2.70
2019-02-04T12:01:29.519Z,2.70
2019-02-04T12:02:34.656Z,2.60
2019-02-04T12:03:29.473Z,2.80
2019-02-04T12:04:29.484Z,2.40
2019-02-04T12:05:29.475Z,2.50
2019-02-04T12:06:29.583Z,2.50
2019-02-04T12:07:29.993Z,2.60
2019-02-04T12:08:29.429Z,2.40
2019-02-04T12:09:29.412Z,2.60
2019-02-04T12:10:29.408Z,2.70
2019-02-04T12:11:29.405Z,2.90
2019-02-04T12:12:29.430Z,2.30
2019-02-04T12:13:29.376Z,2.70
2019-02-04T12:14:29.346Z,2.50
2019-02-04T12:15:29.375Z,2.80
2019-02-04T12:16:29.382Z,2.70
2019-02-04T12:17:29.407Z,2.60
2019-02-04T12:18:29.345Z,2.30
2019-02-04T12:19:29.340Z,2.60
2019-02-04T12:20:29.337Z,2.40
2019-02-04T12:21:29.314Z,2.40
2019-02-04T12:22:29.380Z,2.60
2019-02-04T12:23:29.327Z,2.50
2019-02-04T12:24:29.305Z,2.60
2019-02-04T12:25:29.289Z,2.50
2019-02-04T12:26:29.254Z,2.30
2019-02-04T12:27:32.154Z,2.60
2019-02-04T12:28:29.218Z,2.50
2019-02-04T12:29:29.210Z,2.60
2019-02-04T12:30:31.137Z,2.30
2019-02-04T12:31:29.175Z,2.40
2019-02-04T12:32:29.203Z,2.40
2019-02-04T12:33:29.169Z,2.10
2019-02-04T12:34:29.139Z,2.30
2019-02-04T12:35:29.153Z,2.10
2019-02-04T12:36:29.112Z,2.30
2019-02-04T12:37:29.206Z,2.30
2019-02-04T12:38:29.107Z,2.20
2019-02-04T12:39:29.112Z,2.30
2019-02-04T12:40:29.089Z,2.40
2019-02-04T12:41:29.068Z,2.20
2019-02-04T12:42:29.055Z,2.20
2019-02-04T12:43:29.051Z,2.30
2019-02-04T12:44:29.321Z,2.60
2019-02-04T12:45:29.029Z,2.40
2019-02-04T12:46:29.010Z,2.20
2019-02-04T12:47:29.031Z,2.10
2019-02-04T12:48:28.993Z,2.20
2019-02-04T12:49:28.981Z,2.30
2019-02-04T12:50:29.022Z,2.20
2019-02-04T12:51:33.842Z,2.00
2019-02-04T12:52:28.981Z,2.10
2019-02-04T12:53:28.941Z,2.30
2019-02-04T12:54:28.929Z,2.50
2019-02-04T12:55:28.927Z,2.40
2019-02-04T12:56:28.902Z,2.20
2019-02-04T12:57:28.900Z,2.30
2019-02-04T12:58:28.893Z,2.20
2019-02-04T12:59:28.871Z,2.30
2019-02-04T13:00:28.859Z,2.20
2019-02-04T13:01:28.856Z,2.10
2019-02-04T13:02:28.837Z,2.30
2019-02-04T13:03:28.829Z,2.30
2019-02-04T13:04:28.850Z,2.30
2019-02-04T13:05:28.802Z,2.10
2019-02-04T13:06:28.788Z,2.20
2019-02-04T13:07:28.777Z,2.60
2019-02-04T13:08:28.787Z,2.50
2019-02-04T13:09:28.754Z,2.00
2019-02-04T13:10:28.787Z,2.20
2019-02-04T13:11:28.730Z,2.20
2019-02-04T13:12:28.754Z,2.10
2019-02-04T13:13:28.727Z,2.40
2019-02-04T13:14:28.710Z,2.00
2019-02-04T13:15:28.695Z,2.50
2019-02-04T13:16:28.692Z,2.30
2019-02-04T13:17:28.894Z,2.20
2019-02-04T13:18:28.709Z,2.30